sensor_id;sensor_type;location;lat;lon;timestamp;P1;durP1;ratioP1;P2;durP2;ratioP2
13085;SDS011;6609;49.882;8.664;2022-11-20T00:00:18;28.70;;;16.87;;
13085;SDS011;6609;49.882;8.664;2022-11-20T00:02:45;29.87;;;16.87;;
13085;SDS011;6609;49.882;8.664;2022-11-20T00:05:12;37.07;;;17.17;;
13085;SDS011;6609;49.882;8.664;2022-11-20T00:07:38;33.17;;;16.97;;
13085;SDS011;6609;49.882;8.664;2022-11-20T00:10:05;33.37;;;17.40;;
13085;SDS011;6609;49.882;8.664;2022-11-20T00:12:33;32.43;;;17.33;;
13085;SDS011;6609;49.882;8.664;2022-11-20T00:15:01;28.80;;;16.00;;
13085;SDS011;6609;49.882;8.664;2022-11-20T00:17:28;26.38;;;14.93;;
13085;SDS011;6609;49.882;8.664;2022-11-20T00:19:54;27.63;;;15.53;;
13085;SDS011;6609;49.882;8.664;2022-11-20T00:22:21;28.23;;;15.67;;
13085;SDS011;6609;49.882;8.664;2022-11-20T00:24:48;30.03;;;17.00;;
13085;SDS011;6609;49.882;8.664;2022-11-20T00:27:14;29.73;;;16.53;;
13085;SDS011;6609;49.882;8.664;2022-11-20T00:29:41;34.90;;;16.33;;
13085;SDS011;6609;49.882;8.664;2022-11-20T00:32:09;28.77;;;15.63;;
13085;SDS011;6609;49.882;8.664;2022-11-20T00:34:36;29.73;;;15.80;;
13085;SDS011;6609;49.882;8.664;2022-11-20T00:37:02;30.47;;;15.97;;
13085;SDS011;6609;49.882;8.664;2022-11-20T00:39:29;32.60;;;16.70;;
13085;SDS011;6609;49.882;8.664;2022-11-20T00:41:56;28.67;;;16.23;;
13085;SDS011;6609;49.882;8.664;2022-11-20T00:44:22;30.20;;;15.90;;
13085;SDS011;6609;49.882;8.664;2022-11-20T00:46:49;25.87;;;15.47;;
13085;SDS011;6609;49.882;8.664;2022-11-20T00:49:17;28.53;;;16.33;;
13085;SDS011;6609;49.882;8.664;2022-11-20T00:51:44;27.60;;;16.10;;
13085;SDS011;6609;49.882;8.664;2022-11-20T00:54:10;34.33;;;16.67;;
13085;SDS011;6609;49.882;8.664;2022-11-20T00:56:37;32.47;;;17.10;;
13085;SDS011;6609;49.882;8.664;2022-11-20T00:59:05;32.30;;;17.37;;
13085;SDS011;6609;49.882;8.664;2022-11-20T01:01:31;30.73;;;15.17;;
13085;SDS011;6609;49.882;8.664;2022-11-20T01:04:01;30.50;;;17.50;;
13085;SDS011;6609;49.882;8.664;2022-11-20T01:06:30;30.87;;;16.07;;
13085;SDS011;6609;49.882;8.664;2022-11-20T01:08:59;32.80;;;17.97;;
13085;SDS011;6609;49.882;8.664;2022-11-20T01:11:28;31.07;;;16.30;;
13085;SDS011;6609;49.882;8.664;2022-11-20T01:13:57;28.83;;;15.13;;
13085;SDS011;6609;49.882;8.664;2022-11-20T01:16:26;31.13;;;16.90;;
13085;SDS011;6609;49.882;8.664;2022-11-20T01:18:56;35.47;;;17.43;;
13085;SDS011;6609;49.882;8.664;2022-11-20T01:21:25;32.77;;;17.07;;
13085;SDS011;6609;49.882;8.664;2022-11-20T01:23:54;33.03;;;17.03;;
13085;SDS011;6609;49.882;8.664;2022-11-20T01:26:21;33.93;;;16.60;;
13085;SDS011;6609;49.882;8.664;2022-11-20T01:28:50;30.83;;;15.97;;
13085;SDS011;6609;49.882;8.664;2022-11-20T01:31:17;33.30;;;16.33;;
13085;SDS011;6609;49.882;8.664;2022-11-20T01:33:47;32.87;;;15.83;;
13085;SDS011;6609;49.882;8.664;2022-11-20T01:36:15;33.00;;;16.03;;
13085;SDS011;6609;49.882;8.664;2022-11-20T01:38:43;30.83;;;17.10;;
13085;SDS011;6609;49.882;8.664;2022-11-20T01:41:12;32.10;;;16.93;;
13085;SDS011;6609;49.882;8.664;2022-11-20T01:44:01;33.00;;;16.87;;
13085;SDS011;6609;49.882;8.664;2022-11-20T01:46:27;28.43;;;15.77;;
13085;SDS011;6609;49.882;8.664;2022-11-20T01:48:55;28.80;;;16.00;;
13085;SDS011;6609;49.882;8.664;2022-11-20T01:51:27;32.50;;;17.93;;
13085;SDS011;6609;49.882;8.664;2022-11-20T01:54:00;31.80;;;17.07;;
13085;SDS011;6609;49.882;8.664;2022-11-20T01:56:31;27.73;;;16.10;;
13085;SDS011;6609;49.882;8.664;2022-11-20T01:59:03;29.87;;;15.37;;
13085;SDS011;6609;49.882;8.664;2022-11-20T02:01:31;29.50;;;16.13;;
13085;SDS011;6609;49.882;8.664;2022-11-20T02:03:58;30.57;;;16.07;;
13085;SDS011;6609;49.882;8.664;2022-11-20T02:06:27;30.67;;;16.17;;
13085;SDS011;6609;49.882;8.664;2022-11-20T02:08:56;31.90;;;16.40;;
13085;SDS011;6609;49.882;8.664;2022-11-20T02:11:23;29.93;;;15.70;;
13085;SDS011;6609;49.882;8.664;2022-11-20T02:13:51;31.93;;;15.50;;
13085;SDS011;6609;49.882;8.664;2022-11-20T02:16:20;31.10;;;16.60;;
13085;SDS011;6609;49.882;8.664;2022-11-20T02:18:52;28.77;;;15.23;;
13085;SDS011;6609;49.882;8.664;2022-11-20T02:21:23;26.73;;;14.17;;
13085;SDS011;6609;49.882;8.664;2022-11-20T02:24:02;25.90;;;15.07;;
13085;SDS011;6609;49.882;8.664;2022-11-20T02:26:31;33.40;;;15.90;;
13085;SDS011;6609;49.882;8.664;2022-11-20T02:29:00;31.07;;;16.80;;
13085;SDS011;6609;49.882;8.664;2022-11-20T02:31:28;28.73;;;15.30;;
13085;SDS011;6609;49.882;8.664;2022-11-20T02:33:55;29.13;;;14.73;;
13085;SDS011;6609;49.882;8.664;2022-11-20T02:36:22;31.80;;;16.10;;
13085;SDS011;6609;49.882;8.664;2022-11-20T02:38:52;31.73;;;16.07;;
13085;SDS011;6609;49.882;8.664;2022-11-20T02:41:20;30.93;;;16.27;;
13085;SDS011;6609;49.882;8.664;2022-11-20T02:43:47;25.67;;;13.90;;
13085;SDS011;6609;49.882;8.664;2022-11-20T02:46:14;30.17;;;15.73;;
13085;SDS011;6609;49.882;8.664;2022-11-20T02:48:40;30.37;;;15.57;;
13085;SDS011;6609;49.882;8.664;2022-11-20T02:51:07;28.47;;;15.47;;
13085;SDS011;6609;49.882;8.664;2022-11-20T02:53:34;29.20;;;14.90;;
13085;SDS011;6609;49.882;8.664;2022-11-20T02:56:00;28.17;;;15.07;;
13085;SDS011;6609;49.882;8.664;2022-11-20T02:58:28;27.10;;;15.40;;
13085;SDS011;6609;49.882;8.664;2022-11-20T03:00:55;29.57;;;16.43;;
13085;SDS011;6609;49.882;8.664;2022-11-20T03:03:22;28.20;;;14.47;;
13085;SDS011;6609;49.882;8.664;2022-11-20T03:05:49;26.55;;;14.30;;
13085;SDS011;6609;49.882;8.664;2022-11-20T03:08:15;28.73;;;15.50;;
13085;SDS011;6609;49.882;8.664;2022-11-20T03:10:42;28.57;;;15.53;;
13085;SDS011;6609;49.882;8.664;2022-11-20T03:13:09;33.17;;;15.80;;
13085;SDS011;6609;49.882;8.664;2022-11-20T03:15:37;32.70;;;16.13;;
13085;SDS011;6609;49.882;8.664;2022-11-20T03:18:04;28.33;;;14.87;;
13085;SDS011;6609;49.882;8.664;2022-11-20T03:20:31;28.23;;;15.23;;
13085;SDS011;6609;49.882;8.664;2022-11-20T03:22:59;28.47;;;15.93;;
13085;SDS011;6609;49.882;8.664;2022-11-20T03:25:25;27.60;;;14.70;;
13085;SDS011;6609;49.882;8.664;2022-11-20T03:27:53;25.27;;;15.33;;
13085;SDS011;6609;49.882;8.664;2022-11-20T03:30:20;28.53;;;15.47;;
13085;SDS011;6609;49.882;8.664;2022-11-20T03:32:48;29.47;;;15.60;;
13085;SDS011;6609;49.882;8.664;2022-11-20T03:35:18;29.77;;;13.93;;
13085;SDS011;6609;49.882;8.664;2022-11-20T03:37:45;30.47;;;14.93;;
13085;SDS011;6609;49.882;8.664;2022-11-20T03:40:12;29.13;;;14.60;;
13085;SDS011;6609;49.882;8.664;2022-11-20T03:42:39;29.10;;;15.13;;
13085;SDS011;6609;49.882;8.664;2022-11-20T03:45:11;25.70;;;13.30;;
13085;SDS011;6609;49.882;8.664;2022-11-20T03:47:38;28.20;;;14.03;;
13085;SDS011;6609;49.882;8.664;2022-11-20T03:50:07;25.60;;;13.40;;
13085;SDS011;6609;49.882;8.664;2022-11-20T03:52:35;26.97;;;14.60;;
13085;SDS011;6609;49.882;8.664;2022-11-20T03:55:02;27.63;;;13.90;;
13085;SDS011;6609;49.882;8.664;2022-11-20T03:57:29;25.80;;;14.60;;
13085;SDS011;6609;49.882;8.664;2022-11-20T03:59:56;25.07;;;13.30;;
13085;SDS011;6609;49.882;8.664;2022-11-20T04:02:22;29.90;;;14.93;;
13085;SDS011;6609;49.882;8.664;2022-11-20T04:04:49;26.97;;;13.67;;
13085;SDS011;6609;49.882;8.664;2022-11-20T04:07:17;27.33;;;15.00;;
13085;SDS011;6609;49.882;8.664;2022-11-20T04:09:44;27.63;;;14.40;;
13085;SDS011;6609;49.882;8.664;2022-11-20T04:12:10;27.87;;;14.83;;
13085;SDS011;6609;49.882;8.664;2022-11-20T04:14:37;27.77;;;14.93;;
13085;SDS011;6609;49.882;8.664;2022-11-20T04:17:04;27.27;;;14.97;;
13085;SDS011;6609;49.882;8.664;2022-11-20T04:19:30;28.13;;;15.00;;
13085;SDS011;6609;49.882;8.664;2022-11-20T04:21:57;28.10;;;15.13;;
13085;SDS011;6609;49.882;8.664;2022-11-20T04:24:25;31.10;;;15.20;;
13085;SDS011;6609;49.882;8.664;2022-11-20T04:26:52;27.87;;;14.10;;
13085;SDS011;6609;49.882;8.664;2022-11-20T04:29:19;29.17;;;14.77;;
13085;SDS011;6609;49.882;8.664;2022-11-20T04:31:46;27.30;;;14.07;;
13085;SDS011;6609;49.882;8.664;2022-11-20T04:34:12;30.03;;;14.47;;
13085;SDS011;6609;49.882;8.664;2022-11-20T04:36:39;29.73;;;15.77;;
13085;SDS011;6609;49.882;8.664;2022-11-20T04:39:11;28.13;;;13.93;;
13085;SDS011;6609;49.882;8.664;2022-11-20T04:41:41;25.43;;;14.63;;
13085;SDS011;6609;49.882;8.664;2022-11-20T04:44:08;26.43;;;14.23;;
13085;SDS011;6609;49.882;8.664;2022-11-20T04:46:35;26.30;;;13.30;;
13085;SDS011;6609;49.882;8.664;2022-11-20T04:49:03;31.47;;;15.77;;
13085;SDS011;6609;49.882;8.664;2022-11-20T04:51:30;25.30;;;13.57;;
13085;SDS011;6609;49.882;8.664;2022-11-20T04:53:57;27.13;;;15.07;;
13085;SDS011;6609;49.882;8.664;2022-11-20T04:56:24;26.93;;;14.43;;
13085;SDS011;6609;49.882;8.664;2022-11-20T04:58:52;29.83;;;16.13;;
13085;SDS011;6609;49.882;8.664;2022-11-20T05:01:20;30.23;;;15.60;;
13085;SDS011;6609;49.882;8.664;2022-11-20T05:03:48;31.00;;;15.53;;
13085;SDS011;6609;49.882;8.664;2022-11-20T05:06:18;28.30;;;14.63;;
13085;SDS011;6609;49.882;8.664;2022-11-20T05:08:45;30.67;;;16.33;;
13085;SDS011;6609;49.882;8.664;2022-11-20T05:11:13;30.80;;;14.77;;
13085;SDS011;6609;49.882;8.664;2022-11-20T05:13:40;29.43;;;14.37;;
13085;SDS011;6609;49.882;8.664;2022-11-20T05:16:10;32.47;;;16.20;;
13085;SDS011;6609;49.882;8.664;2022-11-20T05:18:37;29.17;;;15.23;;
13085;SDS011;6609;49.882;8.664;2022-11-20T05:21:05;31.90;;;15.97;;
13085;SDS011;6609;49.882;8.664;2022-11-20T05:23:32;30.87;;;15.50;;
13085;SDS011;6609;49.882;8.664;2022-11-20T05:26:00;31.63;;;16.00;;
13085;SDS011;6609;49.882;8.664;2022-11-20T05:28:27;34.20;;;17.50;;
13085;SDS011;6609;49.882;8.664;2022-11-20T05:30:55;29.73;;;15.47;;
13085;SDS011;6609;49.882;8.664;2022-11-20T05:33:30;30.47;;;15.67;;
13085;SDS011;6609;49.882;8.664;2022-11-20T05:35:57;29.23;;;14.93;;
13085;SDS011;6609;49.882;8.664;2022-11-20T05:38:24;33.80;;;16.93;;
13085;SDS011;6609;49.882;8.664;2022-11-20T05:40:51;30.10;;;15.67;;
13085;SDS011;6609;49.882;8.664;2022-11-20T05:43:17;32.67;;;16.83;;
13085;SDS011;6609;49.882;8.664;2022-11-20T05:45:51;34.87;;;16.50;;
13085;SDS011;6609;49.882;8.664;2022-11-20T05:48:18;33.80;;;16.27;;
13085;SDS011;6609;49.882;8.664;2022-11-20T05:50:46;34.73;;;16.10;;
13085;SDS011;6609;49.882;8.664;2022-11-20T05:53:13;30.77;;;16.33;;
13085;SDS011;6609;49.882;8.664;2022-11-20T05:55:39;32.80;;;17.37;;
13085;SDS011;6609;49.882;8.664;2022-11-20T05:58:06;31.53;;;15.67;;
13085;SDS011;6609;49.882;8.664;2022-11-20T06:00:33;37.90;;;16.63;;
13085;SDS011;6609;49.882;8.664;2022-11-20T06:03:00;37.67;;;17.70;;
13085;SDS011;6609;49.882;8.664;2022-11-20T06:05:27;30.93;;;16.50;;
13085;SDS011;6609;49.882;8.664;2022-11-20T06:07:55;39.07;;;17.37;;
13085;SDS011;6609;49.882;8.664;2022-11-20T06:10:21;36.83;;;17.30;;
13085;SDS011;6609;49.882;8.664;2022-11-20T06:12:48;36.03;;;17.13;;
13085;SDS011;6609;49.882;8.664;2022-11-20T06:15:15;34.63;;;17.17;;
13085;SDS011;6609;49.882;8.664;2022-11-20T06:17:41;35.50;;;17.73;;
13085;SDS011;6609;49.882;8.664;2022-11-20T06:20:09;37.00;;;17.23;;
13085;SDS011;6609;49.882;8.664;2022-11-20T06:22:36;35.50;;;16.77;;
13085;SDS011;6609;49.882;8.664;2022-11-20T06:25:04;37.37;;;17.70;;
13085;SDS011;6609;49.882;8.664;2022-11-20T06:27:31;33.97;;;16.47;;
13085;SDS011;6609;49.882;8.664;2022-11-20T06:29:57;34.73;;;16.23;;
13085;SDS011;6609;49.882;8.664;2022-11-20T06:32:24;32.07;;;16.40;;
13085;SDS011;6609;49.882;8.664;2022-11-20T06:34:51;32.90;;;16.07;;
13085;SDS011;6609;49.882;8.664;2022-11-20T06:37:18;29.43;;;15.40;;
13085;SDS011;6609;49.882;8.664;2022-11-20T06:39:44;29.03;;;15.73;;
13085;SDS011;6609;49.882;8.664;2022-11-20T06:42:12;30.30;;;14.97;;
13085;SDS011;6609;49.882;8.664;2022-11-20T06:44:39;32.97;;;16.83;;
13085;SDS011;6609;49.882;8.664;2022-11-20T06:47:06;33.57;;;15.60;;
13085;SDS011;6609;49.882;8.664;2022-11-20T06:49:32;28.30;;;16.07;;
13085;SDS011;6609;49.882;8.664;2022-11-20T06:52:02;27.50;;;15.53;;
13085;SDS011;6609;49.882;8.664;2022-11-20T06:54:28;27.63;;;15.37;;
13085;SDS011;6609;49.882;8.664;2022-11-20T06:56:55;31.17;;;15.30;;
13085;SDS011;6609;49.882;8.664;2022-11-20T06:59:23;29.43;;;15.23;;
13085;SDS011;6609;49.882;8.664;2022-11-20T07:01:50;30.00;;;16.57;;
13085;SDS011;6609;49.882;8.664;2022-11-20T07:04:17;32.23;;;15.47;;
13085;SDS011;6609;49.882;8.664;2022-11-20T07:06:44;31.17;;;15.87;;
13085;SDS011;6609;49.882;8.664;2022-11-20T07:09:10;30.50;;;15.37;;
13085;SDS011;6609;49.882;8.664;2022-11-20T07:11:37;30.43;;;15.57;;
13085;SDS011;6609;49.882;8.664;2022-11-20T07:14:04;28.13;;;14.60;;
13085;SDS011;6609;49.882;8.664;2022-11-20T07:16:32;28.50;;;15.17;;
13085;SDS011;6609;49.882;8.664;2022-11-20T07:18:59;27.07;;;14.33;;
13085;SDS011;6609;49.882;8.664;2022-11-20T07:21:25;30.73;;;15.37;;
13085;SDS011;6609;49.882;8.664;2022-11-20T07:23:52;28.13;;;15.67;;
13085;SDS011;6609;49.882;8.664;2022-11-20T07:26:19;32.53;;;15.93;;
13085;SDS011;6609;49.882;8.664;2022-11-20T07:28:45;34.67;;;17.53;;
13085;SDS011;6609;49.882;8.664;2022-11-20T07:31:12;31.87;;;15.93;;
13085;SDS011;6609;49.882;8.664;2022-11-20T07:33:40;31.93;;;16.37;;
13085;SDS011;6609;49.882;8.664;2022-11-20T07:36:07;29.47;;;15.37;;
13085;SDS011;6609;49.882;8.664;2022-11-20T07:38:34;28.73;;;14.83;;
13085;SDS011;6609;49.882;8.664;2022-11-20T07:41:01;26.80;;;14.30;;
13085;SDS011;6609;49.882;8.664;2022-11-20T07:43:27;29.50;;;15.30;;
13085;SDS011;6609;49.882;8.664;2022-11-20T07:45:54;26.17;;;15.07;;
13085;SDS011;6609;49.882;8.664;2022-11-20T07:48:21;29.77;;;15.40;;
13085;SDS011;6609;49.882;8.664;2022-11-20T07:50:49;30.63;;;16.03;;
13085;SDS011;6609;49.882;8.664;2022-11-20T07:53:19;28.27;;;14.47;;
13085;SDS011;6609;49.882;8.664;2022-11-20T07:55:46;26.13;;;14.93;;
13085;SDS011;6609;49.882;8.664;2022-11-20T07:58:13;27.67;;;14.57;;
13085;SDS011;6609;49.882;8.664;2022-11-20T08:00:40;25.47;;;14.23;;
13085;SDS011;6609;49.882;8.664;2022-11-20T08:03:07;26.43;;;13.50;;
13085;SDS011;6609;49.882;8.664;2022-11-20T08:05:33;28.77;;;15.67;;
13085;SDS011;6609;49.882;8.664;2022-11-20T08:08:01;26.60;;;14.57;;
13085;SDS011;6609;49.882;8.664;2022-11-20T08:10:28;28.73;;;14.27;;
13085;SDS011;6609;49.882;8.664;2022-11-20T08:12:55;25.53;;;13.40;;
13085;SDS011;6609;49.882;8.664;2022-11-20T08:15:40;24.53;;;13.37;;
13085;SDS011;6609;49.882;8.664;2022-11-20T08:18:07;25.93;;;13.13;;
13085;SDS011;6609;49.882;8.664;2022-11-20T08:20:35;26.27;;;14.23;;
13085;SDS011;6609;49.882;8.664;2022-11-20T08:23:04;28.03;;;14.10;;
13085;SDS011;6609;49.882;8.664;2022-11-20T08:25:32;25.90;;;13.30;;
13085;SDS011;6609;49.882;8.664;2022-11-20T08:28:00;25.00;;;13.47;;
13085;SDS011;6609;49.882;8.664;2022-11-20T08:30:28;25.03;;;13.67;;
13085;SDS011;6609;49.882;8.664;2022-11-20T08:32:59;25.30;;;13.43;;
13085;SDS011;6609;49.882;8.664;2022-11-20T08:35:27;26.13;;;13.77;;
13085;SDS011;6609;49.882;8.664;2022-11-20T08:37:54;28.53;;;14.63;;
13085;SDS011;6609;49.882;8.664;2022-11-20T08:40:22;24.00;;;13.53;;
13085;SDS011;6609;49.882;8.664;2022-11-20T08:42:48;27.23;;;12.63;;
13085;SDS011;6609;49.882;8.664;2022-11-20T08:45:16;28.93;;;13.60;;
13085;SDS011;6609;49.882;8.664;2022-11-20T08:47:44;28.23;;;13.33;;
13085;SDS011;6609;49.882;8.664;2022-11-20T08:50:11;27.40;;;13.77;;
13085;SDS011;6609;49.882;8.664;2022-11-20T08:52:39;25.20;;;12.70;;
13085;SDS011;6609;49.882;8.664;2022-11-20T08:55:07;28.60;;;14.10;;
13085;SDS011;6609;49.882;8.664;2022-11-20T08:57:36;28.87;;;14.60;;
13085;SDS011;6609;49.882;8.664;2022-11-20T09:00:04;28.80;;;15.33;;
13085;SDS011;6609;49.882;8.664;2022-11-20T09:02:33;28.53;;;14.50;;
13085;SDS011;6609;49.882;8.664;2022-11-20T09:05:00;28.47;;;14.60;;
13085;SDS011;6609;49.882;8.664;2022-11-20T09:07:27;26.60;;;14.60;;
13085;SDS011;6609;49.882;8.664;2022-11-20T09:09:55;23.87;;;13.73;;
13085;SDS011;6609;49.882;8.664;2022-11-20T09:12:21;26.40;;;13.70;;
13085;SDS011;6609;49.882;8.664;2022-11-20T09:14:49;17.50;;;10.53;;
13085;SDS011;6609;49.882;8.664;2022-11-20T09:17:16;23.83;;;12.47;;
13085;SDS011;6609;49.882;8.664;2022-11-20T09:19:45;25.60;;;12.80;;
13085;SDS011;6609;49.882;8.664;2022-11-20T09:22:12;24.13;;;13.70;;
13085;SDS011;6609;49.882;8.664;2022-11-20T09:24:38;24.30;;;13.40;;
13085;SDS011;6609;49.882;8.664;2022-11-20T09:27:05;24.57;;;12.37;;
13085;SDS011;6609;49.882;8.664;2022-11-20T09:29:32;25.07;;;12.90;;
13085;SDS011;6609;49.882;8.664;2022-11-20T09:32:00;24.60;;;13.53;;
13085;SDS011;6609;49.882;8.664;2022-11-20T09:34:27;26.70;;;14.50;;
13085;SDS011;6609;49.882;8.664;2022-11-20T09:36:54;23.60;;;12.90;;
13085;SDS011;6609;49.882;8.664;2022-11-20T09:39:20;23.17;;;12.80;;
13085;SDS011;6609;49.882;8.664;2022-11-20T09:41:55;26.53;;;14.17;;
13085;SDS011;6609;49.882;8.664;2022-11-20T09:44:48;22.10;;;12.90;;
13085;SDS011;6609;49.882;8.664;2022-11-20T09:47:31;23.73;;;13.83;;
13085;SDS011;6609;49.882;8.664;2022-11-20T09:50:14;19.57;;;11.27;;
13085;SDS011;6609;49.882;8.664;2022-11-20T09:52:51;23.50;;;13.23;;
13085;SDS011;6609;49.882;8.664;2022-11-20T09:55:27;26.30;;;13.47;;
13085;SDS011;6609;49.882;8.664;2022-11-20T09:57:56;19.37;;;11.37;;
13085;SDS011;6609;49.882;8.664;2022-11-20T10:00:25;20.17;;;12.23;;
13085;SDS011;6609;49.882;8.664;2022-11-20T10:02:58;24.47;;;13.70;;
13085;SDS011;6609;49.882;8.664;2022-11-20T10:05:28;24.93;;;12.57;;
13085;SDS011;6609;49.882;8.664;2022-11-20T10:08:03;22.53;;;11.83;;
13085;SDS011;6609;49.882;8.664;2022-11-20T10:10:40;23.13;;;11.93;;
13085;SDS011;6609;49.882;8.664;2022-11-20T10:13:17;22.90;;;12.27;;
13085;SDS011;6609;49.882;8.664;2022-11-20T10:15:55;20.53;;;11.60;;
13085;SDS011;6609;49.882;8.664;2022-11-20T10:18:39;23.80;;;13.07;;
13085;SDS011;6609;49.882;8.664;2022-11-20T10:21:19;23.13;;;12.50;;
13085;SDS011;6609;49.882;8.664;2022-11-20T10:23:59;24.67;;;13.93;;
13085;SDS011;6609;49.882;8.664;2022-11-20T10:26:52;22.80;;;12.80;;
13085;SDS011;6609;49.882;8.664;2022-11-20T10:29:27;22.13;;;12.97;;
13085;SDS011;6609;49.882;8.664;2022-11-20T10:32:00;24.60;;;14.43;;
13085;SDS011;6609;49.882;8.664;2022-11-20T10:34:32;27.27;;;14.63;;
13085;SDS011;6609;49.882;8.664;2022-11-20T10:37:11;21.90;;;13.67;;
13085;SDS011;6609;49.882;8.664;2022-11-20T10:39:44;23.97;;;13.07;;
13085;SDS011;6609;49.882;8.664;2022-11-20T10:42:19;23.27;;;13.77;;
13085;SDS011;6609;49.882;8.664;2022-11-20T10:44:58;22.77;;;13.17;;
13085;SDS011;6609;49.882;8.664;2022-11-20T10:47:35;23.87;;;13.53;;
13085;SDS011;6609;49.882;8.664;2022-11-20T10:50:04;23.10;;;14.03;;
13085;SDS011;6609;49.882;8.664;2022-11-20T10:52:37;23.70;;;13.37;;
13085;SDS011;6609;49.882;8.664;2022-11-20T10:55:23;28.30;;;14.17;;
13085;SDS011;6609;49.882;8.664;2022-11-20T10:57:58;22.03;;;13.50;;
13085;SDS011;6609;49.882;8.664;2022-11-20T11:00:30;23.93;;;13.30;;
13085;SDS011;6609;49.882;8.664;2022-11-20T11:02:57;19.73;;;11.60;;
13085;SDS011;6609;49.882;8.664;2022-11-20T11:05:31;22.17;;;13.23;;
13085;SDS011;6609;49.882;8.664;2022-11-20T11:08:02;24.30;;;13.00;;
13085;SDS011;6609;49.882;8.664;2022-11-20T11:10:32;24.20;;;12.50;;
13085;SDS011;6609;49.882;8.664;2022-11-20T11:13:06;22.70;;;13.17;;
13085;SDS011;6609;49.882;8.664;2022-11-20T11:15:36;24.30;;;14.57;;
13085;SDS011;6609;49.882;8.664;2022-11-20T11:18:05;22.47;;;12.67;;
13085;SDS011;6609;49.882;8.664;2022-11-20T11:20:36;21.63;;;12.70;;
13085;SDS011;6609;49.882;8.664;2022-11-20T11:23:04;19.37;;;11.10;;
13085;SDS011;6609;49.882;8.664;2022-11-20T11:25:31;22.10;;;12.37;;
13085;SDS011;6609;49.882;8.664;2022-11-20T11:28:00;23.10;;;12.80;;
13085;SDS011;6609;49.882;8.664;2022-11-20T11:30:28;21.80;;;12.47;;
13085;SDS011;6609;49.882;8.664;2022-11-20T11:33:08;28.93;;;16.27;;
13085;SDS011;6609;49.882;8.664;2022-11-20T11:35:43;23.70;;;12.40;;
13085;SDS011;6609;49.882;8.664;2022-11-20T11:38:12;20.57;;;11.83;;
13085;SDS011;6609;49.882;8.664;2022-11-20T11:40:42;20.00;;;11.87;;
13085;SDS011;6609;49.882;8.664;2022-11-20T11:43:16;18.83;;;11.73;;
13085;SDS011;6609;49.882;8.664;2022-11-20T11:46:03;18.80;;;11.83;;
13085;SDS011;6609;49.882;8.664;2022-11-20T11:48:40;19.37;;;11.03;;
13085;SDS011;6609;49.882;8.664;2022-11-20T11:51:08;17.30;;;10.10;;
13085;SDS011;6609;49.882;8.664;2022-11-20T11:53:35;18.10;;;10.43;;
13085;SDS011;6609;49.882;8.664;2022-11-20T11:56:08;18.07;;;10.83;;
13085;SDS011;6609;49.882;8.664;2022-11-20T11:58:40;17.27;;;10.10;;
13085;SDS011;6609;49.882;8.664;2022-11-20T12:01:17;18.13;;;11.00;;
13085;SDS011;6609;49.882;8.664;2022-11-20T12:03:54;16.47;;;10.93;;
13085;SDS011;6609;49.882;8.664;2022-11-20T12:06:28;17.43;;;10.57;;
13085;SDS011;6609;49.882;8.664;2022-11-20T12:08:59;15.60;;;10.17;;
13085;SDS011;6609;49.882;8.664;2022-11-20T12:11:30;16.80;;;10.10;;
13085;SDS011;6609;49.882;8.664;2022-11-20T12:14:01;16.27;;;9.90;;
13085;SDS011;6609;49.882;8.664;2022-11-20T12:16:36;19.40;;;11.40;;
13085;SDS011;6609;49.882;8.664;2022-11-20T12:19:06;20.73;;;11.97;;
13085;SDS011;6609;49.882;8.664;2022-11-20T12:21:40;19.23;;;10.33;;
13085;SDS011;6609;49.882;8.664;2022-11-20T12:27:14;17.50;;;11.50;;
13085;SDS011;6609;49.882;8.664;2022-11-20T12:29:59;18.60;;;11.00;;
13085;SDS011;6609;49.882;8.664;2022-11-20T12:32:36;19.43;;;11.17;;
13085;SDS011;6609;49.882;8.664;2022-11-20T12:41:46;16.87;;;10.20;;
13085;SDS011;6609;49.882;8.664;2022-11-20T12:44:52;17.70;;;10.90;;
13085;SDS011;6609;49.882;8.664;2022-11-20T12:47:38;17.70;;;10.90;;
13085;SDS011;6609;49.882;8.664;2022-11-20T12:50:16;17.63;;;10.60;;
13085;SDS011;6609;49.882;8.664;2022-11-20T12:52:55;18.50;;;10.60;;
13085;SDS011;6609;49.882;8.664;2022-11-20T12:55:28;19.30;;;10.77;;
13085;SDS011;6609;49.882;8.664;2022-11-20T12:58:04;17.73;;;10.33;;
13085;SDS011;6609;49.882;8.664;2022-11-20T13:00:36;17.53;;;10.27;;
13085;SDS011;6609;49.882;8.664;2022-11-20T13:03:16;16.77;;;10.30;;
13085;SDS011;6609;49.882;8.664;2022-11-20T13:05:59;19.83;;;12.43;;
13085;SDS011;6609;49.882;8.664;2022-11-20T13:08:33;19.33;;;10.23;;
13085;SDS011;6609;49.882;8.664;2022-11-20T13:11:01;19.03;;;11.03;;
13085;SDS011;6609;49.882;8.664;2022-11-20T13:13:40;17.43;;;10.73;;
13085;SDS011;6609;49.882;8.664;2022-11-20T13:16:16;20.57;;;10.47;;
13085;SDS011;6609;49.882;8.664;2022-11-20T13:18:50;19.90;;;11.27;;
13085;SDS011;6609;49.882;8.664;2022-11-20T13:21:19;19.00;;;10.10;;
13085;SDS011;6609;49.882;8.664;2022-11-20T13:23:49;18.07;;;10.53;;
13085;SDS011;6609;49.882;8.664;2022-11-20T13:26:17;19.40;;;10.53;;
13085;SDS011;6609;49.882;8.664;2022-11-20T13:28:48;19.50;;;10.90;;
13085;SDS011;6609;49.882;8.664;2022-11-20T13:31:31;18.93;;;11.73;;
13085;SDS011;6609;49.882;8.664;2022-11-20T13:34:00;19.03;;;9.97;;
13085;SDS011;6609;49.882;8.664;2022-11-20T13:36:29;19.23;;;11.33;;
13085;SDS011;6609;49.882;8.664;2022-11-20T13:38:57;16.37;;;10.00;;
13085;SDS011;6609;49.882;8.664;2022-11-20T13:41:25;15.37;;;8.73;;
13085;SDS011;6609;49.882;8.664;2022-11-20T13:44:04;14.27;;;9.67;;
13085;SDS011;6609;49.882;8.664;2022-11-20T13:46:39;15.03;;;9.00;;
13085;SDS011;6609;49.882;8.664;2022-11-20T13:49:09;17.47;;;10.33;;
13085;SDS011;6609;49.882;8.664;2022-11-20T13:51:42;20.30;;;10.13;;
13085;SDS011;6609;49.882;8.664;2022-11-20T13:54:40;15.53;;;9.70;;
13085;SDS011;6609;49.882;8.664;2022-11-20T14:00:20;17.40;;;10.57;;
13085;SDS011;6609;49.882;8.664;2022-11-20T14:02:51;18.30;;;11.67;;
13085;SDS011;6609;49.882;8.664;2022-11-20T14:05:27;17.20;;;10.33;;
13085;SDS011;6609;49.882;8.664;2022-11-20T14:07:57;18.00;;;10.73;;
13085;SDS011;6609;49.882;8.664;2022-11-20T14:10:26;16.77;;;10.17;;
13085;SDS011;6609;49.882;8.664;2022-11-20T14:12:54;15.80;;;10.00;;
13085;SDS011;6609;49.882;8.664;2022-11-20T14:15:27;14.93;;;9.97;;
13085;SDS011;6609;49.882;8.664;2022-11-20T14:17:55;14.83;;;9.60;;
13085;SDS011;6609;49.882;8.664;2022-11-20T14:20:23;18.60;;;10.60;;
13085;SDS011;6609;49.882;8.664;2022-11-20T14:22:53;24.30;;;13.13;;
13085;SDS011;6609;49.882;8.664;2022-11-20T14:25:21;25.10;;;15.27;;
13085;SDS011;6609;49.882;8.664;2022-11-20T14:27:52;21.77;;;12.80;;
13085;SDS011;6609;49.882;8.664;2022-11-20T14:30:21;18.90;;;11.23;;
13085;SDS011;6609;49.882;8.664;2022-11-20T14:32:51;16.83;;;9.83;;
13085;SDS011;6609;49.882;8.664;2022-11-20T14:35:21;16.47;;;10.20;;
13085;SDS011;6609;49.882;8.664;2022-11-20T14:37:50;15.70;;;9.70;;
13085;SDS011;6609;49.882;8.664;2022-11-20T14:40:25;18.33;;;9.90;;
13085;SDS011;6609;49.882;8.664;2022-11-20T14:42:54;16.97;;;9.57;;
13085;SDS011;6609;49.882;8.664;2022-11-20T14:45:21;15.33;;;9.63;;
13085;SDS011;6609;49.882;8.664;2022-11-20T14:47:51;19.53;;;10.63;;
13085;SDS011;6609;49.882;8.664;2022-11-20T14:50:20;18.00;;;10.17;;
13085;SDS011;6609;49.882;8.664;2022-11-20T14:52:49;17.90;;;10.43;;
13085;SDS011;6609;49.882;8.664;2022-11-20T14:55:31;17.47;;;10.23;;
13085;SDS011;6609;49.882;8.664;2022-11-20T14:57:59;21.60;;;11.60;;
13085;SDS011;6609;49.882;8.664;2022-11-20T15:00:28;17.53;;;9.83;;
13085;SDS011;6609;49.882;8.664;2022-11-20T15:02:57;19.70;;;10.20;;